createdAt,value
2018-12-30T00:01:38.909Z,7.95
2018-12-30T00:04:08.808Z,8.14
2018-12-30T00:06:40.157Z,8.13
2018-12-30T00:09:10.252Z,8.13
2018-12-30T00:11:40.784Z,8.05
2018-12-30T00:14:10.592Z,8.05
2018-12-30T00:16:40.358Z,8.29
2018-12-30T00:19:10.116Z,8.21
2018-12-30T00:21:39.956Z,8.24
2018-12-30T00:24:09.587Z,8.24
2018-12-30T00:26:39.406Z,8.26
2018-12-30T00:29:09.020Z,8.01
2018-12-30T00:31:38.875Z,8.01
2018-12-30T00:34:08.747Z,8.00
2018-12-30T00:36:38.704Z,8.00
2018-12-30T00:39:08.514Z,8.02
2018-12-30T00:41:38.244Z,7.94
2018-12-30T00:44:08.023Z,8.03
2018-12-30T00:46:37.767Z,8.23
2018-12-30T00:49:07.668Z,8.34
2018-12-30T00:51:37.531Z,8.34
2018-12-30T00:54:07.160Z,8.43
2018-12-30T00:56:36.738Z,8.27
2018-12-30T00:59:06.375Z,8.29
2018-12-30T01:01:36.098Z,8.29
2018-12-30T01:04:06.001Z,8.37
2018-12-30T01:06:35.875Z,8.41
2018-12-30T01:09:07.292Z,8.41
2018-12-30T01:11:37.031Z,8.49
2018-12-30T01:14:06.630Z,8.47
2018-12-30T01:16:36.512Z,8.47
2018-12-30T01:19:06.398Z,8.38
2018-12-30T01:21:35.962Z,8.38
2018-12-30T01:24:05.728Z,8.43
2018-12-30T01:26:35.427Z,8.52
2018-12-30T01:29:05.275Z,8.52
2018-12-30T01:31:35.405Z,8.45
2018-12-30T01:34:05.073Z,8.45
2018-12-30T01:36:34.856Z,8.41
2018-12-30T01:39:05.281Z,8.43
2018-12-30T01:41:34.885Z,8.23
2018-12-30T01:44:05.291Z,8.23
2018-12-30T01:46:34.918Z,8.38
2018-12-30T01:49:04.671Z,8.54
2018-12-30T01:51:34.404Z,8.48
2018-12-30T01:54:04.128Z,8.48
2018-12-30T01:56:34.215Z,8.38
2018-12-30T01:59:03.895Z,8.46
2018-12-30T02:01:33.611Z,8.46
2018-12-30T02:04:03.428Z,8.56
2018-12-30T02:06:33.177Z,8.56
2018-12-30T02:09:03.006Z,8.69
2018-12-30T02:11:32.670Z,8.80
2018-12-30T02:14:02.353Z,8.70
2018-12-30T02:16:31.983Z,8.74
2018-12-30T02:19:01.683Z,8.74
2018-12-30T02:21:31.605Z,8.85
2018-12-30T02:24:01.337Z,9.03
2018-12-30T02:26:31.164Z,9.05
2018-12-30T02:29:00.793Z,9.05
2018-12-30T02:31:30.692Z,8.90
2018-12-30T02:34:00.399Z,8.99
2018-12-30T02:36:30.354Z,8.99
2018-12-30T02:38:59.982Z,9.51
2018-12-30T02:41:29.636Z,9.51
2018-12-30T02:43:59.648Z,9.36
2018-12-30T02:46:29.363Z,9.36
2018-12-30T02:48:59.158Z,9.37
2018-12-30T02:51:28.813Z,9.37
2018-12-30T02:53:58.536Z,9.50
2018-12-30T02:56:28.176Z,9.49
2018-12-30T02:58:57.877Z,9.45
2018-12-30T03:01:27.599Z,9.72
2018-12-30T03:03:57.400Z,9.78
2018-12-30T03:06:27.565Z,9.60
2018-12-30T03:08:57.540Z,9.73
2018-12-30T03:11:27.231Z,9.46
2018-12-30T03:13:56.843Z,9.55
2018-12-30T03:16:26.450Z,9.61
2018-12-30T03:18:56.208Z,9.77
2018-12-30T03:21:25.822Z,9.77
2018-12-30T03:23:55.568Z,9.70
2018-12-30T03:26:25.329Z,9.93
2018-12-30T03:28:55.129Z,9.82
2018-12-30T03:31:24.821Z,9.75
2018-12-30T03:33:54.581Z,9.86
2018-12-30T03:36:24.329Z,9.92
2018-12-30T03:38:54.063Z,9.78
2018-12-30T03:41:23.824Z,9.91
2018-12-30T03:43:53.550Z,9.98
2018-12-30T03:46:23.185Z,9.96
2018-12-30T03:48:52.859Z,10.16
2018-12-30T03:51:22.577Z,10.27
2018-12-30T03:53:52.181Z,10.02
2018-12-30T03:56:21.827Z,9.92
2018-12-30T03:58:51.693Z,9.92
2018-12-30T04:01:21.482Z,9.83
2018-12-30T04:03:51.165Z,9.73
2018-12-30T04:06:20.900Z,9.82
2018-12-30T04:08:50.665Z,9.92
2018-12-30T04:11:20.334Z,10.08
2018-12-30T04:13:50.094Z,10.10
2018-12-30T04:16:19.811Z,10.14
2018-12-30T04:18:49.527Z,10.14
2018-12-30T04:21:19.443Z,9.95
2018-12-30T04:23:49.224Z,9.91
2018-12-30T04:26:18.965Z,9.78
2018-12-30T04:28:48.647Z,9.97
2018-12-30T04:31:18.470Z,9.91
2018-12-30T04:33:48.335Z,9.96
2018-12-30T04:36:18.147Z,9.88
2018-12-30T04:38:48.145Z,9.77
2018-12-30T04:41:17.742Z,10.03
2018-12-30T04:43:47.412Z,10.09
2018-12-30T04:46:17.186Z,9.90
2018-12-30T04:48:46.836Z,9.95
2018-12-30T04:51:16.486Z,9.95
2018-12-30T04:53:46.134Z,9.89
2018-12-30T04:56:15.767Z,9.94
2018-12-30T04:58:45.563Z,9.78
2018-12-30T05:01:15.255Z,9.71
2018-12-30T05:03:44.910Z,9.72
2018-12-30T05:06:14.649Z,9.68
2018-12-30T05:08:44.418Z,9.77
2018-12-30T05:11:14.099Z,9.70
2018-12-30T05:13:43.711Z,9.84
2018-12-30T05:16:13.510Z,9.71
2018-12-30T05:18:43.131Z,9.65
2018-12-30T05:21:13.098Z,9.76
2018-12-30T05:23:42.831Z,9.81
2018-12-30T05:26:12.571Z,9.84
2018-12-30T05:28:42.343Z,9.71
2018-12-30T05:31:11.994Z,9.84
2018-12-30T05:33:41.741Z,9.83
2018-12-30T05:36:11.403Z,9.92
2018-12-30T05:38:41.085Z,9.82
2018-12-30T05:41:10.934Z,9.69
2018-12-30T05:43:40.794Z,9.73
2018-12-30T05:46:10.461Z,9.91
2018-12-30T05:48:40.338Z,10.07
2018-12-30T05:51:09.954Z,10.17
2018-12-30T05:53:39.767Z,10.36
2018-12-30T05:56:09.499Z,10.45
2018-12-30T05:58:39.254Z,10.47
2018-12-30T06:01:08.910Z,10.17
2018-12-30T06:03:38.603Z,10.26
2018-12-30T06:06:08.611Z,10.22
2018-12-30T06:08:38.361Z,10.11
2018-12-30T06:11:07.987Z,10.13
2018-12-30T06:13:37.617Z,10.12
2018-12-30T06:16:07.547Z,10.17
2018-12-30T06:18:37.270Z,10.02
2018-12-30T06:21:07.129Z,10.15
2018-12-30T06:23:36.876Z,10.17
2018-12-30T06:26:06.612Z,10.39
2018-12-30T06:28:36.536Z,10.64
2018-12-30T06:31:05.976Z,10.13
2018-12-30T06:33:35.384Z,10.05
2018-12-30T06:36:04.811Z,10.19
2018-12-30T06:38:34.244Z,10.32
2018-12-30T06:41:03.878Z,10.41
2018-12-30T06:43:33.558Z,10.33
2018-12-30T06:46:03.191Z,10.23
2018-12-30T06:48:32.942Z,10.40
2018-12-30T06:51:02.571Z,10.38
2018-12-30T06:53:32.280Z,10.58
2018-12-30T06:56:01.978Z,10.80
2018-12-30T06:58:31.713Z,10.77
2018-12-30T07:01:01.456Z,10.61
2018-12-30T07:03:31.120Z,10.80
2018-12-30T07:06:00.846Z,10.99
2018-12-30T07:08:30.577Z,10.79
2018-12-30T07:11:00.286Z,10.81
2018-12-30T07:13:30.165Z,10.85
2018-12-30T07:15:59.612Z,10.68
2018-12-30T07:18:29.100Z,10.67
2018-12-30T07:20:58.579Z,10.80
2018-12-30T07:23:27.963Z,10.81
2018-12-30T07:25:57.374Z,10.82
2018-12-30T07:28:26.885Z,10.87
2018-12-30T07:30:56.368Z,10.75
2018-12-30T07:33:25.752Z,10.65
2018-12-30T07:35:55.184Z,10.65
2018-12-30T07:38:24.612Z,10.58
2018-12-30T07:40:54.164Z,10.49
2018-12-30T07:43:23.729Z,10.57
2018-12-30T07:45:53.204Z,10.28
2018-12-30T07:48:22.605Z,10.45
2018-12-30T07:50:51.994Z,10.36
2018-12-30T07:53:21.457Z,10.45
2018-12-30T07:55:51.123Z,10.48
2018-12-30T07:58:20.882Z,10.37
2018-12-30T08:00:50.791Z,10.37
2018-12-30T08:03:20.388Z,10.19
2018-12-30T08:05:50.103Z,10.17
2018-12-30T08:08:19.747Z,10.23
2018-12-30T08:10:49.581Z,10.23
2018-12-30T08:13:19.334Z,10.45
2018-12-30T08:15:49.125Z,10.26
2018-12-30T08:18:18.927Z,10.22
2018-12-30T08:20:48.891Z,10.38
2018-12-30T08:23:21.789Z,10.31
2018-12-30T08:25:49.984Z,10.38
2018-12-30T08:28:25.065Z,10.35
2018-12-30T08:30:51.472Z,10.34
2018-12-30T08:33:21.152Z,10.41
2018-12-30T08:35:50.857Z,10.38
2018-12-30T08:38:20.457Z,10.52
2018-12-30T08:40:50.228Z,10.40
2018-12-30T08:43:20.049Z,10.31
2018-12-30T08:45:49.905Z,10.33
2018-12-30T08:48:19.679Z,10.63
2018-12-30T08:50:49.314Z,10.88
2018-12-30T08:53:19.066Z,11.07
2018-12-30T08:55:49.215Z,11.10
2018-12-30T08:58:18.909Z,10.98
2018-12-30T09:00:48.836Z,10.73
2018-12-30T09:03:18.623Z,10.79
2018-12-30T09:05:48.287Z,11.09
2018-12-30T09:08:17.942Z,11.29
2018-12-30T09:10:48.048Z,11.34
2018-12-30T09:13:18.047Z,11.20
2018-12-30T09:15:48.944Z,11.23
2018-12-30T09:18:19.464Z,11.10
2018-12-30T09:20:49.560Z,11.17
2018-12-30T09:23:19.413Z,11.05
2018-12-30T09:25:50.370Z,11.49
2018-12-30T09:28:19.844Z,11.55
2018-12-30T09:30:49.352Z,11.57
2018-12-30T09:33:18.852Z,11.47
2018-12-30T09:35:48.371Z,11.66
2018-12-30T09:38:18.299Z,11.54
2018-12-30T09:40:47.920Z,11.39
2018-12-30T09:43:17.558Z,11.30
2018-12-30T09:45:47.337Z,11.36
2018-12-30T09:48:17.112Z,11.07
2018-12-30T09:50:46.769Z,11.31
2018-12-30T09:53:16.740Z,11.48
2018-12-30T09:55:46.607Z,11.20
2018-12-30T09:58:16.458Z,11.11
2018-12-30T10:00:47.558Z,11.25
2018-12-30T10:03:17.396Z,11.46
2018-12-30T10:05:46.997Z,11.40
2018-12-30T10:08:16.848Z,11.44
2018-12-30T10:10:46.512Z,11.29
2018-12-30T10:13:16.223Z,11.28
2018-12-30T10:15:47.626Z,11.39
2018-12-30T10:18:17.582Z,11.50
2018-12-30T10:20:47.397Z,11.72
2018-12-30T10:23:17.147Z,11.65
2018-12-30T10:25:46.821Z,11.69
2018-12-30T10:28:16.536Z,11.80
2018-12-30T10:30:46.381Z,11.65
2018-12-30T10:33:16.316Z,11.72
2018-12-30T10:35:45.885Z,11.59
2018-12-30T10:38:15.361Z,11.76
2018-12-30T10:40:45.215Z,11.83
2018-12-30T10:43:14.972Z,11.72
2018-12-30T10:45:44.500Z,11.65
2018-12-30T10:48:13.980Z,11.76
2018-12-30T10:50:43.414Z,11.80
2018-12-30T10:53:12.838Z,11.70
2018-12-30T10:55:42.387Z,11.54
2018-12-30T10:58:11.888Z,11.77
2018-12-30T11:00:41.592Z,11.75
2018-12-30T11:03:11.253Z,11.92
2018-12-30T11:05:41.180Z,11.83
2018-12-30T11:08:10.889Z,11.66
2018-12-30T11:10:40.743Z,11.55
2018-12-30T11:13:10.616Z,11.60
2018-12-30T11:15:40.333Z,11.72
2018-12-30T11:18:10.132Z,11.83
2018-12-30T11:20:39.909Z,11.71
2018-12-30T11:23:09.548Z,11.88
2018-12-30T11:25:39.203Z,11.84
2018-12-30T11:28:10.577Z,11.79
2018-12-30T11:30:40.280Z,11.68
2018-12-30T11:33:10.132Z,11.66
2018-12-30T11:35:39.735Z,11.86
2018-12-30T11:38:09.503Z,12.06
2018-12-30T11:40:40.117Z,11.88
2018-12-30T11:43:09.864Z,11.58
2018-12-30T11:45:39.542Z,11.48
2018-12-30T11:48:09.354Z,11.59
2018-12-30T11:50:39.052Z,11.43
2018-12-30T11:53:08.827Z,11.27
2018-12-30T11:55:38.528Z,11.10
2018-12-30T11:58:08.333Z,11.26
2018-12-30T12:00:37.912Z,11.32
2018-12-30T12:03:07.680Z,11.37
2018-12-30T12:05:37.346Z,11.39
2018-12-30T12:08:07.244Z,11.16
2018-12-30T12:10:36.877Z,11.14
2018-12-30T12:13:06.475Z,11.30
2018-12-30T12:15:36.270Z,11.27
2018-12-30T12:18:06.201Z,11.02
2018-12-30T12:20:35.859Z,11.04
2018-12-30T12:23:05.750Z,11.09
2018-12-30T12:25:36.042Z,11.21
2018-12-30T12:28:06.496Z,11.27
2018-12-30T12:30:36.084Z,11.49
2018-12-30T12:33:05.751Z,11.61
2018-12-30T12:35:35.615Z,11.53
2018-12-30T12:38:05.401Z,11.52
2018-12-30T12:40:35.034Z,11.62
2018-12-30T12:43:04.568Z,11.67
2018-12-30T12:45:33.895Z,11.68
2018-12-30T12:48:03.539Z,11.48
2018-12-30T12:50:33.160Z,11.43
2018-12-30T12:53:02.786Z,11.21
2018-12-30T12:55:32.557Z,11.10
2018-12-30T12:58:02.322Z,11.14
2018-12-30T13:00:31.933Z,11.12
2018-12-30T13:03:01.554Z,11.16
2018-12-30T13:05:31.359Z,11.29
2018-12-30T13:08:01.009Z,11.35
2018-12-30T13:10:30.891Z,11.45
2018-12-30T13:13:00.612Z,11.23
2018-12-30T13:15:30.456Z,11.24
2018-12-30T13:18:00.170Z,11.21
2018-12-30T13:20:29.742Z,11.23
2018-12-30T13:23:06.297Z,11.22
2018-12-30T13:25:36.303Z,11.07
2018-12-30T13:28:06.082Z,10.99
2018-12-30T13:30:35.756Z,10.87
2018-12-30T13:33:05.712Z,10.77
2018-12-30T13:35:43.125Z,10.71
2018-12-30T13:38:06.533Z,10.80
2018-12-30T13:40:36.405Z,10.89
2018-12-30T13:43:06.128Z,10.92
2018-12-30T13:45:35.843Z,11.04
2018-12-30T13:48:05.757Z,10.98
2018-12-30T13:50:35.745Z,10.99
2018-12-30T13:53:05.147Z,11.09
2018-12-30T13:55:34.948Z,11.10
2018-12-30T13:58:04.520Z,11.01
2018-12-30T14:00:34.130Z,11.15
2018-12-30T14:03:03.843Z,11.23
2018-12-30T14:05:33.929Z,11.11
2018-12-30T14:08:03.597Z,11.06
2018-12-30T14:10:33.462Z,11.17
2018-12-30T14:13:03.344Z,11.27
2018-12-30T14:15:33.291Z,11.16
2018-12-30T14:18:03.226Z,11.35
2018-12-30T14:20:32.945Z,11.27
2018-12-30T14:23:02.625Z,11.24
2018-12-30T14:25:32.443Z,11.15
2018-12-30T14:28:02.216Z,11.17
2018-12-30T14:30:32.093Z,11.20
2018-12-30T14:33:01.768Z,11.28
2018-12-30T14:35:31.747Z,11.30
2018-12-30T14:38:01.375Z,11.39
2018-12-30T14:40:31.259Z,11.63
2018-12-30T14:43:01.134Z,11.55
2018-12-30T14:45:30.822Z,11.69
2018-12-30T14:48:00.480Z,11.70
2018-12-30T14:50:30.404Z,11.84
2018-12-30T14:53:00.254Z,11.67
2018-12-30T14:55:30.316Z,11.84
2018-12-30T14:58:00.124Z,12.00
2018-12-30T15:00:29.943Z,11.92
2018-12-30T15:02:59.674Z,11.74
2018-12-30T15:05:29.421Z,11.51
2018-12-30T15:07:59.154Z,11.46
2018-12-30T15:10:29.228Z,11.45
2018-12-30T15:12:58.993Z,11.56
2018-12-30T15:15:28.936Z,11.56
2018-12-30T15:17:58.700Z,11.74
2018-12-30T15:20:28.685Z,11.65
2018-12-30T15:22:58.655Z,11.69
2018-12-30T15:25:28.543Z,11.77
2018-12-30T15:27:58.358Z,11.99
2018-12-30T15:30:28.171Z,12.16
2018-12-30T15:32:58.110Z,12.28
2018-12-30T15:35:27.847Z,12.35
2018-12-30T15:37:57.555Z,12.36
2018-12-30T15:40:27.267Z,12.33
2018-12-30T15:42:57.035Z,12.19
2018-12-30T15:45:26.965Z,11.89
2018-12-30T15:47:56.676Z,11.76
2018-12-30T15:50:26.321Z,11.71
2018-12-30T15:52:56.341Z,11.81
2018-12-30T15:55:26.083Z,11.83
2018-12-30T15:57:55.943Z,11.92
2018-12-30T16:00:25.732Z,12.05
2018-12-30T16:02:55.600Z,12.10
2018-12-30T16:05:25.427Z,12.16
2018-12-30T16:07:55.213Z,12.19
2018-12-30T16:10:25.128Z,12.03
2018-12-30T16:12:54.980Z,11.92
2018-12-30T16:15:24.651Z,11.61
2018-12-30T16:17:54.166Z,11.55
2018-12-30T16:20:23.780Z,11.50
2018-12-30T16:22:53.590Z,11.42
2018-12-30T16:25:27.112Z,11.39
2018-12-30T16:27:54.518Z,11.42
2018-12-30T16:30:24.318Z,11.37
2018-12-30T16:32:54.052Z,11.17
2018-12-30T16:35:23.862Z,11.10
2018-12-30T16:37:53.679Z,11.16
2018-12-30T16:40:23.283Z,11.00
2018-12-30T16:42:53.061Z,11.08
2018-12-30T16:45:22.692Z,10.90
2018-12-30T16:47:52.409Z,11.00
2018-12-30T16:50:22.066Z,11.02
2018-12-30T16:52:51.781Z,11.00
2018-12-30T16:55:21.519Z,11.16
2018-12-30T16:57:51.171Z,11.36
2018-12-30T17:00:20.952Z,11.28
2018-12-30T17:02:50.735Z,11.30
2018-12-30T17:05:20.729Z,11.03
2018-12-30T17:07:50.614Z,10.99
2018-12-30T17:10:20.488Z,10.70
2018-12-30T17:12:50.425Z,10.59
2018-12-30T17:15:20.223Z,10.42
2018-12-30T17:17:50.010Z,10.52
2018-12-30T17:20:20.071Z,10.53
2018-12-30T17:22:50.144Z,10.49
2018-12-30T17:25:20.124Z,10.45
2018-12-30T17:27:49.828Z,10.47
2018-12-30T17:30:19.674Z,10.47
2018-12-30T17:32:50.472Z,10.47
2018-12-30T17:35:20.288Z,10.50
2018-12-30T17:37:50.467Z,10.43
2018-12-30T17:40:20.355Z,10.36
2018-12-30T17:42:49.961Z,10.09
2018-12-30T17:45:19.709Z,10.23
2018-12-30T17:47:49.474Z,10.32
2018-12-30T17:50:19.370Z,10.36
2018-12-30T17:52:49.011Z,10.37
2018-12-30T17:55:18.875Z,10.35
2018-12-30T17:57:48.603Z,10.26
2018-12-30T18:00:18.450Z,10.40
2018-12-30T18:02:48.186Z,10.16
2018-12-30T18:05:18.804Z,10.12
2018-12-30T18:07:48.748Z,10.06
2018-12-30T18:10:18.655Z,10.08
2018-12-30T18:12:48.499Z,10.13
2018-12-30T18:15:18.247Z,10.03
2018-12-30T18:17:48.030Z,10.08
2018-12-30T18:20:17.756Z,10.18
2018-12-30T18:22:47.620Z,10.22
2018-12-30T18:25:17.282Z,10.32
2018-12-30T18:27:46.979Z,10.10
2018-12-30T18:30:16.573Z,10.09
2018-12-30T18:32:46.494Z,10.17
2018-12-30T18:35:16.010Z,10.24
2018-12-30T18:37:45.792Z,10.48
2018-12-30T18:40:15.354Z,10.38
2018-12-30T18:42:45.201Z,10.33
2018-12-30T18:45:15.035Z,10.36
2018-12-30T18:47:44.951Z,10.39
2018-12-30T18:50:14.415Z,10.32
2018-12-30T18:52:44.394Z,10.51
2018-12-30T18:55:13.855Z,10.51
2018-12-30T18:57:43.391Z,10.69
2018-12-30T19:00:12.973Z,10.89
2018-12-30T19:02:42.899Z,11.07
2018-12-30T19:05:12.590Z,11.25
2018-12-30T19:07:42.111Z,11.21
2018-12-30T19:10:12.906Z,11.31
2018-12-30T19:12:42.555Z,11.51
2018-12-30T19:15:12.064Z,11.49
2018-12-30T19:17:41.538Z,11.42
2018-12-30T19:20:11.108Z,11.47
2018-12-30T19:22:40.652Z,11.31
2018-12-30T19:25:10.131Z,11.28
2018-12-30T19:27:39.839Z,11.24
2018-12-30T19:30:11.178Z,11.20
2018-12-30T19:32:41.644Z,11.14
2018-12-30T19:35:11.294Z,11.09
2018-12-30T19:37:40.974Z,11.00
2018-12-30T19:40:12.745Z,10.70
2018-12-30T19:42:42.961Z,10.70
2018-12-30T19:45:12.406Z,10.71
2018-12-30T19:47:41.875Z,10.70
2018-12-30T19:50:11.489Z,10.67
2018-12-30T19:52:42.130Z,10.73
2018-12-30T19:55:11.888Z,10.97
2018-12-30T19:57:41.512Z,11.01
2018-12-30T20:00:12.214Z,11.02
2018-12-30T20:02:41.868Z,10.98
2018-12-30T20:05:11.509Z,10.94
2018-12-30T20:07:41.173Z,10.79
2018-12-30T20:10:13.045Z,10.74
2018-12-30T20:12:41.885Z,10.72
2018-12-30T20:15:11.328Z,10.75
2018-12-30T20:17:40.857Z,10.78
2018-12-30T20:20:10.281Z,10.99
2018-12-30T20:22:39.744Z,11.03
2018-12-30T20:25:09.277Z,11.05
2018-12-30T20:27:38.762Z,11.01
2018-12-30T20:30:08.965Z,11.12
2018-12-30T20:32:40.517Z,11.16
2018-12-30T20:35:10.395Z,11.31
2018-12-30T20:37:40.100Z,11.23
2018-12-30T20:40:09.756Z,11.20
2018-12-30T20:42:39.625Z,11.33
2018-12-30T20:45:09.394Z,11.48
2018-12-30T20:47:39.281Z,11.48
2018-12-30T20:50:08.984Z,11.56
2018-12-30T20:52:38.805Z,11.58
2018-12-30T20:55:08.611Z,11.61
2018-12-30T20:57:38.200Z,11.67
2018-12-30T21:00:08.476Z,11.75
2018-12-30T21:02:38.350Z,11.73
2018-12-30T21:05:08.881Z,11.74
2018-12-30T21:07:38.681Z,11.62
2018-12-30T21:10:08.711Z,11.66
2018-12-30T21:12:38.346Z,11.59
2018-12-30T21:15:08.252Z,11.58
2018-12-30T21:17:37.819Z,11.46
2018-12-30T21:20:07.486Z,11.35
2018-12-30T21:22:37.254Z,11.24
2018-12-30T21:25:07.325Z,11.13
2018-12-30T21:27:36.965Z,11.11
2018-12-30T21:30:07.415Z,11.16
2018-12-30T21:32:37.390Z,11.16
2018-12-30T21:35:07.976Z,11.28
2018-12-30T21:37:38.785Z,11.22
2018-12-30T21:40:09.418Z,11.29
2018-12-30T21:42:43.623Z,11.36
2018-12-30T21:45:11.685Z,11.31
2018-12-30T21:47:42.848Z,11.12
2018-12-30T21:50:13.186Z,11.07
2018-12-30T21:52:46.680Z,10.91
2018-12-30T21:55:18.356Z,10.85
2018-12-30T21:57:48.850Z,10.91
2018-12-30T22:00:18.971Z,10.97
2018-12-30T22:02:48.540Z,10.94
2018-12-30T22:05:18.370Z,11.02
2018-12-30T22:07:47.911Z,11.08
2018-12-30T22:10:17.749Z,11.15
2018-12-30T22:12:47.567Z,11.18
2018-12-30T22:15:17.393Z,11.20
2018-12-30T22:17:47.388Z,11.17
2018-12-30T22:20:17.334Z,11.14
2018-12-30T22:22:47.020Z,11.11
2018-12-30T22:25:17.014Z,11.07
2018-12-30T22:27:46.737Z,11.09
2018-12-30T22:30:16.506Z,11.07
2018-12-30T22:32:46.210Z,11.00
2018-12-30T22:35:16.069Z,10.95
2018-12-30T22:37:45.727Z,10.96
2018-12-30T22:40:15.672Z,10.97
2018-12-30T22:42:45.682Z,11.08
2018-12-30T22:45:15.442Z,11.09
2018-12-30T22:47:45.262Z,11.11
2018-12-30T22:50:14.896Z,11.13
2018-12-30T22:52:44.744Z,11.17
2018-12-30T22:55:14.555Z,11.21
2018-12-30T22:57:44.188Z,11.10
2018-12-30T23:00:31.939Z,10.99
2018-12-30T23:03:01.600Z,10.89
2018-12-30T23:05:31.180Z,10.78
2018-12-30T23:08:01.036Z,10.64
2018-12-30T23:10:30.881Z,10.62
2018-12-30T23:13:00.793Z,10.60
2018-12-30T23:15:30.608Z,10.59
2018-12-30T23:18:00.443Z,10.64
2018-12-30T23:20:30.182Z,10.58
2018-12-30T23:22:59.978Z,10.52
2018-12-30T23:25:29.578Z,10.31
2018-12-30T23:27:59.271Z,10.12
2018-12-30T23:30:28.902Z,9.79
2018-12-30T23:32:58.681Z,9.79
2018-12-30T23:35:28.336Z,9.69
2018-12-30T23:37:58.247Z,9.78
2018-12-30T23:40:27.965Z,9.82
2018-12-30T23:42:57.756Z,9.96
2018-12-30T23:45:27.389Z,10.10
2018-12-30T23:47:57.046Z,10.23
2018-12-30T23:50:26.897Z,10.41
2018-12-30T23:52:56.596Z,10.63
2018-12-30T23:55:26.459Z,10.71
2018-12-30T23:57:56.263Z,10.80
